sensor_id;sensor_type;location;lat;lon;timestamp;pressure;altitude;pressure_sealevel;temperature;humidity
61939;BME280;47897;50.322;18.892;2022-10-16T00:02:21;57740.97;;;-145.38;70.70
61939;BME280;47897;50.322;18.892;2022-10-16T00:05:05;57725.25;;;-145.38;70.92
61939;BME280;47897;50.322;18.892;2022-10-16T00:07:50;57746.92;;;-145.38;70.79
61939;BME280;47897;50.322;18.892;2022-10-16T00:10:35;57749.89;;;-145.38;70.84
61939;BME280;47897;50.322;18.892;2022-10-16T00:13:19;57733.32;;;-145.38;70.85
61939;BME280;47897;50.322;18.892;2022-10-16T00:16:05;57755.42;;;-145.38;70.86
61939;BME280;47897;50.322;18.892;2022-10-16T00:18:49;57729.49;;;-145.38;70.92
61939;BME280;47897;50.322;18.892;2022-10-16T00:21:34;57740.54;;;-145.38;71.10
61939;BME280;47897;50.322;18.892;2022-10-16T00:24:18;57735.87;;;-145.38;71.17
61939;BME280;47897;50.322;18.892;2022-10-16T00:27:03;57743.95;;;-145.38;71.02
61939;BME280;47897;50.322;18.892;2022-10-16T00:29:51;57761.36;;;-145.38;71.17
61939;BME280;47897;50.322;18.892;2022-10-16T00:32:35;57763.07;;;-145.38;71.06
61939;BME280;47897;50.322;18.892;2022-10-16T00:35:19;57738.00;;;-145.38;71.18
61939;BME280;47897;50.322;18.892;2022-10-16T00:38:04;57737.14;;;-145.38;71.30
61939;BME280;47897;50.322;18.892;2022-10-16T00:40:48;57739.70;;;-145.38;71.31
61939;BME280;47897;50.322;18.892;2022-10-16T00:43:37;57740.97;;;-145.38;71.52
61939;BME280;47897;50.322;18.892;2022-10-16T00:46:41;57718.02;;;-145.38;71.47
61939;BME280;47897;50.322;18.892;2022-10-16T00:49:25;57756.70;;;-145.38;71.53
61939;BME280;47897;50.322;18.892;2022-10-16T00:52:10;57761.36;;;-145.38;71.96
61939;BME280;47897;50.322;18.892;2022-10-16T00:54:55;57725.67;;;-145.38;72.03
61939;BME280;47897;50.322;18.892;2022-10-16T00:57:41;57751.17;;;-145.38;72.06
61939;BME280;47897;50.322;18.892;2022-10-16T01:00:27;57736.72;;;-145.38;72.21
61939;BME280;47897;50.322;18.892;2022-10-16T01:03:31;57753.29;;;-145.38;72.21
61939;BME280;47897;50.322;18.892;2022-10-16T01:06:44;57718.45;;;-145.38;72.45
61939;BME280;47897;50.322;18.892;2022-10-16T01:12:23;57735.87;;;-145.38;72.75
61939;BME280;47897;50.322;18.892;2022-10-16T01:15:25;57750.32;;;-145.38;72.57
61939;BME280;47897;50.322;18.892;2022-10-16T01:18:23;57750.32;;;-145.38;72.66
61939;BME280;47897;50.322;18.892;2022-10-16T01:21:22;57740.97;;;-145.38;72.47
61939;BME280;47897;50.322;18.892;2022-10-16T01:27:25;57750.74;;;-145.38;72.47
61939;BME280;47897;50.322;18.892;2022-10-16T01:30:17;57746.92;;;-145.38;72.52
61939;BME280;47897;50.322;18.892;2022-10-16T01:35:59;57759.24;;;-145.38;72.64
61939;BME280;47897;50.322;18.892;2022-10-16T01:38:49;57737.57;;;-145.38;72.65
61939;BME280;47897;50.322;18.892;2022-10-16T01:41:40;57738.42;;;-145.38;72.68
61939;BME280;47897;50.322;18.892;2022-10-16T01:44:29;57744.37;;;-145.38;72.51
61939;BME280;47897;50.322;18.892;2022-10-16T01:47:15;57741.82;;;-145.38;72.53
61939;BME280;47897;50.322;18.892;2022-10-16T01:50:03;57736.72;;;-145.38;72.60
61939;BME280;47897;50.322;18.892;2022-10-16T01:52:52;57727.37;;;-145.38;72.70
61939;BME280;47897;50.322;18.892;2022-10-16T01:55:40;57735.02;;;-145.38;72.67
61939;BME280;47897;50.322;18.892;2022-10-16T01:58:30;57745.22;;;-145.38;72.60
61939;BME280;47897;50.322;18.892;2022-10-16T02:01:21;57738.42;;;-145.38;72.57
61939;BME280;47897;50.322;18.892;2022-10-16T02:04:23;57742.67;;;-145.38;72.60
61939;BME280;47897;50.322;18.892;2022-10-16T02:07:08;57745.64;;;-145.38;72.75
61939;BME280;47897;50.322;18.892;2022-10-16T02:09:54;57733.32;;;-145.38;72.75
61939;BME280;47897;50.322;18.892;2022-10-16T02:12:41;57724.40;;;-145.38;72.90
61939;BME280;47897;50.322;18.892;2022-10-16T02:15:28;57728.65;;;-145.38;73.07
61939;BME280;47897;50.322;18.892;2022-10-16T02:18:14;57733.32;;;-145.38;73.04
61939;BME280;47897;50.322;18.892;2022-10-16T02:21:25;57735.87;;;-145.38;73.17
61939;BME280;47897;50.322;18.892;2022-10-16T02:24:13;57748.20;;;-145.38;73.23
61939;BME280;47897;50.322;18.892;2022-10-16T02:27:14;57738.42;;;-145.38;73.41
61939;BME280;47897;50.322;18.892;2022-10-16T02:30:08;57741.82;;;-145.38;73.56
61939;BME280;47897;50.322;18.892;2022-10-16T02:32:53;57747.34;;;-145.38;73.50
61939;BME280;47897;50.322;18.892;2022-10-16T02:35:40;57746.07;;;-145.38;73.61
61939;BME280;47897;50.322;18.892;2022-10-16T02:38:26;57723.55;;;-145.38;73.73
61939;BME280;47897;50.322;18.892;2022-10-16T02:41:11;57758.39;;;-145.38;73.70
61939;BME280;47897;50.322;18.892;2022-10-16T02:43:55;57747.77;;;-145.38;73.71
61939;BME280;47897;50.322;18.892;2022-10-16T02:46:39;57754.57;;;-145.38;73.72
61939;BME280;47897;50.322;18.892;2022-10-16T02:49:24;57757.54;;;-145.38;73.81
61939;BME280;47897;50.322;18.892;2022-10-16T02:52:08;57755.42;;;-145.38;73.66
61939;BME280;47897;50.322;18.892;2022-10-16T02:54:52;57752.45;;;-145.38;73.53
61939;BME280;47897;50.322;18.892;2022-10-16T02:57:36;57723.97;;;-145.38;73.51
61939;BME280;47897;50.322;18.892;2022-10-16T03:00:21;57725.68;;;-145.38;73.57
61939;BME280;47897;50.322;18.892;2022-10-16T03:03:05;57737.57;;;-145.38;73.59
61939;BME280;47897;50.322;18.892;2022-10-16T03:05:50;57732.05;;;-145.38;73.63
61939;BME280;47897;50.322;18.892;2022-10-16T03:08:34;57733.74;;;-145.38;73.55
61939;BME280;47897;50.322;18.892;2022-10-16T03:11:18;57727.38;;;-145.38;73.67
61939;BME280;47897;50.322;18.892;2022-10-16T03:14:02;57745.22;;;-145.38;73.62
61939;BME280;47897;50.322;18.892;2022-10-16T03:16:46;57743.09;;;-145.38;73.66
61939;BME280;47897;50.322;18.892;2022-10-16T03:19:30;57734.59;;;-145.38;73.64
61939;BME280;47897;50.322;18.892;2022-10-16T03:22:14;57737.14;;;-145.38;73.71
61939;BME280;47897;50.322;18.892;2022-10-16T03:24:58;57731.63;;;-145.38;73.75
61939;BME280;47897;50.322;18.892;2022-10-16T03:27:42;57749.47;;;-145.38;73.74
61939;BME280;47897;50.322;18.892;2022-10-16T03:30:26;57745.64;;;-145.38;73.77
61939;BME280;47897;50.322;18.892;2022-10-16T03:33:11;57747.77;;;-145.38;73.84
61939;BME280;47897;50.322;18.892;2022-10-16T03:35:55;57740.12;;;-145.38;74.09
61939;BME280;47897;50.322;18.892;2022-10-16T03:38:40;57749.47;;;-145.38;74.46
61939;BME280;47897;50.322;18.892;2022-10-16T03:41:24;57729.49;;;-145.38;74.66
61939;BME280;47897;50.322;18.892;2022-10-16T03:44:08;57732.89;;;-145.38;74.72
61939;BME280;47897;50.322;18.892;2022-10-16T03:46:53;57747.77;;;-145.38;74.88
61939;BME280;47897;50.322;18.892;2022-10-16T03:49:37;57731.63;;;-145.38;75.00
61939;BME280;47897;50.322;18.892;2022-10-16T03:52:21;57737.14;;;-145.38;74.91
61939;BME280;47897;50.322;18.892;2022-10-16T03:55:06;57738.42;;;-145.38;75.01
61939;BME280;47897;50.322;18.892;2022-10-16T03:57:51;57737.14;;;-145.38;75.22
61939;BME280;47897;50.322;18.892;2022-10-16T04:00:39;57744.37;;;-145.38;75.13
61939;BME280;47897;50.322;18.892;2022-10-16T04:03:20;57760.09;;;-145.38;75.09
61939;BME280;47897;50.322;18.892;2022-10-16T04:05:46;57745.64;;;-145.38;75.15
61939;BME280;47897;50.322;18.892;2022-10-16T04:08:12;57743.52;;;-145.38;74.96
61939;BME280;47897;50.322;18.892;2022-10-16T04:10:38;57748.62;;;-145.38;75.21
61939;BME280;47897;50.322;18.892;2022-10-16T04:13:03;57736.73;;;-145.38;75.12
61939;BME280;47897;50.322;18.892;2022-10-16T04:15:29;57741.82;;;-145.38;75.07
61939;BME280;47897;50.322;18.892;2022-10-16T04:17:55;57743.95;;;-145.38;74.98
61939;BME280;47897;50.322;18.892;2022-10-16T04:20:21;57748.20;;;-145.38;74.96
61939;BME280;47897;50.322;18.892;2022-10-16T04:22:46;57749.47;;;-145.38;74.79
61939;BME280;47897;50.322;18.892;2022-10-16T04:25:12;57748.20;;;-145.38;74.82
61939;BME280;47897;50.322;18.892;2022-10-16T04:27:38;57759.67;;;-145.38;74.73
61939;BME280;47897;50.322;18.892;2022-10-16T04:30:04;57730.77;;;-145.38;74.79
61939;BME280;47897;50.322;18.892;2022-10-16T04:32:30;57746.49;;;-145.38;74.56
61939;BME280;47897;50.322;18.892;2022-10-16T04:34:56;57745.64;;;-145.38;74.50
61939;BME280;47897;50.322;18.892;2022-10-16T04:37:25;57738.84;;;-145.38;74.44
61939;BME280;47897;50.322;18.892;2022-10-16T04:39:52;57746.07;;;-145.38;74.22
61939;BME280;47897;50.322;18.892;2022-10-16T04:42:18;57763.49;;;-145.38;74.37
61939;BME280;47897;50.322;18.892;2022-10-16T04:44:44;57747.77;;;-145.38;74.35
61939;BME280;47897;50.322;18.892;2022-10-16T04:47:10;57731.63;;;-145.38;74.31
61939;BME280;47897;50.322;18.892;2022-10-16T04:49:36;57739.27;;;-145.38;74.27
61939;BME280;47897;50.322;18.892;2022-10-16T04:52:01;57746.92;;;-145.38;74.44
61939;BME280;47897;50.322;18.892;2022-10-16T04:54:27;57739.70;;;-145.38;74.51
61939;BME280;47897;50.322;18.892;2022-10-16T04:56:53;57743.09;;;-145.38;74.61
61939;BME280;47897;50.322;18.892;2022-10-16T04:59:19;57748.62;;;-145.38;74.47
61939;BME280;47897;50.322;18.892;2022-10-16T05:01:45;57732.89;;;-145.38;74.44
61939;BME280;47897;50.322;18.892;2022-10-16T05:04:11;57722.70;;;-145.38;74.51
61939;BME280;47897;50.322;18.892;2022-10-16T05:06:38;57739.27;;;-145.38;74.71
61939;BME280;47897;50.322;18.892;2022-10-16T05:09:05;57746.49;;;-145.38;74.74
61939;BME280;47897;50.322;18.892;2022-10-16T05:11:31;57753.29;;;-145.38;74.69
61939;BME280;47897;50.322;18.892;2022-10-16T05:13:57;57742.67;;;-145.38;74.84
61939;BME280;47897;50.322;18.892;2022-10-16T05:16:23;57741.82;;;-145.38;74.94
61939;BME280;47897;50.322;18.892;2022-10-16T05:18:48;57750.32;;;-145.38;75.15
61939;BME280;47897;50.322;18.892;2022-10-16T05:21:14;57742.24;;;-145.38;75.23
61939;BME280;47897;50.322;18.892;2022-10-16T05:23:40;57741.39;;;-145.38;75.38
61939;BME280;47897;50.322;18.892;2022-10-16T05:26:05;57752.87;;;-145.38;75.46
61939;BME280;47897;50.322;18.892;2022-10-16T05:28:31;57744.37;;;-145.38;75.39
61939;BME280;47897;50.322;18.892;2022-10-16T05:30:57;57752.87;;;-145.38;75.52
61939;BME280;47897;50.322;18.892;2022-10-16T05:33:24;57735.45;;;-145.38;75.64
61939;BME280;47897;50.322;18.892;2022-10-16T05:35:51;57740.97;;;-145.38;75.69
61939;BME280;47897;50.322;18.892;2022-10-16T05:38:17;57747.77;;;-145.38;75.73
61939;BME280;47897;50.322;18.892;2022-10-16T05:40:43;57751.59;;;-145.38;75.69
61939;BME280;47897;50.322;18.892;2022-10-16T05:43:09;57731.20;;;-145.38;75.56
61939;BME280;47897;50.322;18.892;2022-10-16T05:45:35;57732.47;;;-145.38;75.75
61939;BME280;47897;50.322;18.892;2022-10-16T05:48:00;57742.67;;;-145.38;75.74
61939;BME280;47897;50.322;18.892;2022-10-16T05:50:26;57743.09;;;-145.38;75.89
61939;BME280;47897;50.322;18.892;2022-10-16T05:52:52;57738.42;;;-145.38;76.01
61939;BME280;47897;50.322;18.892;2022-10-16T05:55:18;57732.04;;;-145.38;76.09
61939;BME280;47897;50.322;18.892;2022-10-16T05:57:45;57749.89;;;-145.38;76.08
61939;BME280;47897;50.322;18.892;2022-10-16T06:00:10;57746.92;;;-145.38;76.21
61939;BME280;47897;50.322;18.892;2022-10-16T06:02:36;57721.00;;;-145.38;76.50
61939;BME280;47897;50.322;18.892;2022-10-16T06:05:02;57741.39;;;-145.38;76.52
61939;BME280;47897;50.322;18.892;2022-10-16T06:07:27;57744.79;;;-145.38;76.67
61939;BME280;47897;50.322;18.892;2022-10-16T06:09:53;57726.95;;;-145.38;76.63
61939;BME280;47897;50.322;18.892;2022-10-16T06:12:19;57744.79;;;-145.38;76.70
61939;BME280;47897;50.322;18.892;2022-10-16T06:14:46;57738.84;;;-145.38;76.73
61939;BME280;47897;50.322;18.892;2022-10-16T06:17:15;57752.02;;;-145.38;76.70
61939;BME280;47897;50.322;18.892;2022-10-16T06:19:41;57751.59;;;-145.38;76.68
61939;BME280;47897;50.322;18.892;2022-10-16T06:22:06;57745.64;;;-145.38;76.68
61939;BME280;47897;50.322;18.892;2022-10-16T06:24:32;57757.11;;;-145.38;76.87
61939;BME280;47897;50.322;18.892;2022-10-16T06:26:57;57746.07;;;-145.38;77.16
61939;BME280;47897;50.322;18.892;2022-10-16T06:29:23;57751.59;;;-145.38;77.13
61939;BME280;47897;50.322;18.892;2022-10-16T06:31:49;57754.99;;;-145.38;77.33
61939;BME280;47897;50.322;18.892;2022-10-16T06:34:14;57759.24;;;-145.38;77.48
61939;BME280;47897;50.322;18.892;2022-10-16T06:36:40;57743.09;;;-145.38;77.49
61939;BME280;47897;50.322;18.892;2022-10-16T06:39:06;57738.42;;;-145.38;77.72
61939;BME280;47897;50.322;18.892;2022-10-16T06:41:33;57750.74;;;-145.38;77.47
61939;BME280;47897;50.322;18.892;2022-10-16T06:43:59;57759.66;;;-145.38;77.16
61939;BME280;47897;50.322;18.892;2022-10-16T06:46:25;57751.16;;;-145.38;76.71
61939;BME280;47897;50.322;18.892;2022-10-16T06:48:53;57724.39;;;-145.38;76.35
61939;BME280;47897;50.322;18.892;2022-10-16T06:51:21;57752.45;;;-145.38;75.87
61939;BME280;47897;50.322;18.892;2022-10-16T06:53:49;57751.17;;;-145.38;75.26
61939;BME280;47897;50.322;18.892;2022-10-16T06:56:21;57748.20;;;-145.38;74.99
61939;BME280;47897;50.322;18.892;2022-10-16T06:58:47;57750.32;;;-145.38;74.60
61939;BME280;47897;50.322;18.892;2022-10-16T07:01:13;57746.92;;;-145.38;74.25
61939;BME280;47897;50.322;18.892;2022-10-16T07:03:41;57743.09;;;-145.38;73.53
61939;BME280;47897;50.322;18.892;2022-10-16T07:06:08;57757.11;;;-145.38;73.05
61939;BME280;47897;50.322;18.892;2022-10-16T07:08:37;57751.59;;;-145.38;72.82
61939;BME280;47897;50.322;18.892;2022-10-16T07:11:16;57748.62;;;-145.38;72.39
61939;BME280;47897;50.322;18.892;2022-10-16T07:13:43;57743.52;;;-145.38;72.14
61939;BME280;47897;50.322;18.892;2022-10-16T07:16:12;57759.24;;;-145.38;71.92
61939;BME280;47897;50.322;18.892;2022-10-16T07:18:39;57756.70;;;-145.38;71.59
61939;BME280;47897;50.322;18.892;2022-10-16T07:21:17;57746.49;;;-145.38;71.32
61939;BME280;47897;50.322;18.892;2022-10-16T07:23:45;57740.54;;;-145.38;71.00
61939;BME280;47897;50.322;18.892;2022-10-16T07:26:10;57735.02;;;-145.38;70.91
61939;BME280;47897;50.322;18.892;2022-10-16T07:28:37;57732.47;;;-145.38;70.66
61939;BME280;47897;50.322;18.892;2022-10-16T07:31:05;57751.17;;;-145.38;70.37
61939;BME280;47897;50.322;18.892;2022-10-16T07:33:32;57757.96;;;-145.38;70.33
61939;BME280;47897;50.322;18.892;2022-10-16T07:35:58;57740.97;;;-145.38;69.80
61939;BME280;47897;50.322;18.892;2022-10-16T07:38:24;57738.42;;;-145.38;69.68
61939;BME280;47897;50.322;18.892;2022-10-16T07:40:58;57753.29;;;-145.38;69.51
61939;BME280;47897;50.322;18.892;2022-10-16T07:43:25;57736.72;;;-145.38;69.29
61939;BME280;47897;50.322;18.892;2022-10-16T07:45:51;57735.02;;;-145.38;68.89
61939;BME280;47897;50.322;18.892;2022-10-16T07:48:17;57754.14;;;-145.38;68.49
61939;BME280;47897;50.322;18.892;2022-10-16T07:50:43;57749.89;;;-145.38;68.03
61939;BME280;47897;50.322;18.892;2022-10-16T07:53:10;57728.65;;;-145.38;68.04
61939;BME280;47897;50.322;18.892;2022-10-16T07:55:37;57752.45;;;-145.38;67.94
61939;BME280;47897;50.322;18.892;2022-10-16T07:58:03;57743.09;;;-145.38;67.34
61939;BME280;47897;50.322;18.892;2022-10-16T08:00:30;57743.95;;;-145.38;67.50
61939;BME280;47897;50.322;18.892;2022-10-16T08:02:57;57732.04;;;-145.38;67.12
61939;BME280;47897;50.322;18.892;2022-10-16T08:05:29;57754.57;;;-145.38;66.73
61939;BME280;47897;50.322;18.892;2022-10-16T08:07:56;57727.37;;;-145.38;66.08
61939;BME280;47897;50.322;18.892;2022-10-16T08:10:25;57732.89;;;-145.38;65.78
61939;BME280;47897;50.322;18.892;2022-10-16T08:12:52;57740.12;;;-145.38;65.58
61939;BME280;47897;50.322;18.892;2022-10-16T08:15:18;57722.70;;;-145.38;65.69
61939;BME280;47897;50.322;18.892;2022-10-16T08:18:01;57744.37;;;-145.38;65.28
61939;BME280;47897;50.322;18.892;2022-10-16T08:20:28;57739.70;;;-145.38;65.06
61939;BME280;47897;50.322;18.892;2022-10-16T08:22:55;57734.17;;;-145.38;64.35
61939;BME280;47897;50.322;18.892;2022-10-16T08:25:22;57737.57;;;-145.38;63.87
61939;BME280;47897;50.322;18.892;2022-10-16T08:27:49;57732.47;;;-145.38;64.15
61939;BME280;47897;50.322;18.892;2022-10-16T08:30:18;57732.47;;;-145.38;63.96
61939;BME280;47897;50.322;18.892;2022-10-16T08:32:44;57740.97;;;-145.38;63.66
61939;BME280;47897;50.322;18.892;2022-10-16T08:35:11;57731.20;;;-145.38;61.95
61939;BME280;47897;50.322;18.892;2022-10-16T08:37:38;57729.93;;;-145.38;62.82
61939;BME280;47897;50.322;18.892;2022-10-16T08:40:11;57724.39;;;-145.38;62.49
61939;BME280;47897;50.322;18.892;2022-10-16T08:43:15;57726.95;;;-145.38;62.14
61939;BME280;47897;50.322;18.892;2022-10-16T08:48:55;57716.75;;;-145.38;61.33
61939;BME280;47897;50.322;18.892;2022-10-16T08:51:31;57721.85;;;-145.38;60.80
61939;BME280;47897;50.322;18.892;2022-10-16T08:54:04;57749.89;;;-145.38;60.63
61939;BME280;47897;50.322;18.892;2022-10-16T08:56:30;57743.09;;;-145.38;60.41
61939;BME280;47897;50.322;18.892;2022-10-16T08:58:58;57732.47;;;-145.38;60.41
61939;BME280;47897;50.322;18.892;2022-10-16T09:01:49;57731.20;;;-145.38;60.74
61939;BME280;47897;50.322;18.892;2022-10-16T09:04:42;57726.52;;;-145.38;59.83
61939;BME280;47897;50.322;18.892;2022-10-16T09:12:56;57724.40;;;-145.38;59.50
61939;BME280;47897;50.322;18.892;2022-10-16T09:23:32;57725.67;;;-145.38;59.02
61939;BME280;47897;50.322;18.892;2022-10-16T09:26:00;57735.87;;;-145.38;58.72
61939;BME280;47897;50.322;18.892;2022-10-16T09:28:26;57752.86;;;-145.38;58.68
61939;BME280;47897;50.322;18.892;2022-10-16T09:30:51;57723.98;;;-145.38;58.29
61939;BME280;47897;50.322;18.892;2022-10-16T09:33:20;57730.34;;;-145.38;58.31
61939;BME280;47897;50.322;18.892;2022-10-16T09:35:50;57720.15;;;-145.38;58.71
61939;BME280;47897;50.322;18.892;2022-10-16T09:38:25;57743.09;;;-145.38;58.78
61939;BME280;47897;50.322;18.892;2022-10-16T09:40:52;57729.07;;;-145.38;58.34
61939;BME280;47897;50.322;18.892;2022-10-16T09:43:28;57723.12;;;-145.38;58.45
61939;BME280;47897;50.322;18.892;2022-10-16T09:46:00;57737.99;;;-145.38;58.16
61939;BME280;47897;50.322;18.892;2022-10-16T09:48:35;57732.48;;;-145.38;58.49
61939;BME280;47897;50.322;18.892;2022-10-16T09:51:03;57726.10;;;-145.38;58.12
61939;BME280;47897;50.322;18.892;2022-10-16T09:53:42;57744.79;;;-145.38;58.21
61939;BME280;47897;50.322;18.892;2022-10-16T09:56:11;57735.87;;;-145.38;58.06
61939;BME280;47897;50.322;18.892;2022-10-16T09:58:42;57741.39;;;-145.38;57.79
61939;BME280;47897;50.322;18.892;2022-10-16T10:01:14;57730.77;;;-145.38;57.02
61939;BME280;47897;50.322;18.892;2022-10-16T10:03:42;57744.37;;;-145.38;56.84
61939;BME280;47897;50.322;18.892;2022-10-16T10:06:22;57718.02;;;-145.38;56.86
61939;BME280;47897;50.322;18.892;2022-10-16T10:08:58;57722.70;;;-145.38;56.99
61939;BME280;47897;50.322;18.892;2022-10-16T10:11:45;57724.40;;;-145.38;56.88
61939;BME280;47897;50.322;18.892;2022-10-16T10:14:22;57730.35;;;-145.38;56.82
61939;BME280;47897;50.322;18.892;2022-10-16T10:16:49;57727.37;;;-145.38;56.03
61939;BME280;47897;50.322;18.892;2022-10-16T10:19:22;57724.82;;;-145.38;56.21
61939;BME280;47897;50.322;18.892;2022-10-16T10:21:49;57721.00;;;-145.38;56.47
61939;BME280;47897;50.322;18.892;2022-10-16T10:24:17;57726.52;;;-145.38;56.32
61939;BME280;47897;50.322;18.892;2022-10-16T10:29:38;57720.57;;;-145.38;55.66
61939;BME280;47897;50.322;18.892;2022-10-16T10:32:12;57719.30;;;-145.38;56.14
61939;BME280;47897;50.322;18.892;2022-10-16T10:37:29;57715.90;;;-145.38;55.98
61939;BME280;47897;50.322;18.892;2022-10-16T10:40:11;57729.50;;;-145.38;56.23
61939;BME280;47897;50.322;18.892;2022-10-16T10:45:27;57715.48;;;-145.38;56.31
61939;BME280;47897;50.322;18.892;2022-10-16T10:48:27;57729.50;;;-145.38;56.36
61939;BME280;47897;50.322;18.892;2022-10-16T10:51:15;57741.39;;;-145.38;56.27
61939;BME280;47897;50.322;18.892;2022-10-16T10:54:10;57717.18;;;-145.38;56.36
61939;BME280;47897;50.322;18.892;2022-10-16T11:02:09;57731.62;;;-145.38;56.57
61939;BME280;47897;50.322;18.892;2022-10-16T11:07:30;57712.07;;;-145.38;56.51
61939;BME280;47897;50.322;18.892;2022-10-16T11:10:40;57743.95;;;-145.38;56.59
61939;BME280;47897;50.322;18.892;2022-10-16T11:13:31;57741.82;;;-145.38;57.15
61939;BME280;47897;50.322;18.892;2022-10-16T11:16:00;57723.12;;;-145.38;56.99
61939;BME280;47897;50.322;18.892;2022-10-16T11:18:37;57734.59;;;-145.38;56.86
61939;BME280;47897;50.322;18.892;2022-10-16T11:21:09;57722.70;;;-145.38;57.10
61939;BME280;47897;50.322;18.892;2022-10-16T11:26:53;57730.34;;;-145.38;57.30
61939;BME280;47897;50.322;18.892;2022-10-16T11:29:26;57736.72;;;-145.38;56.87
61939;BME280;47897;50.322;18.892;2022-10-16T11:32:00;57730.77;;;-145.38;57.09
61939;BME280;47897;50.322;18.892;2022-10-16T11:34:55;57742.24;;;-145.38;56.86
61939;BME280;47897;50.322;18.892;2022-10-16T11:37:29;57722.27;;;-145.38;57.00
61939;BME280;47897;50.322;18.892;2022-10-16T11:40:03;57728.64;;;-145.38;56.79
61939;BME280;47897;50.322;18.892;2022-10-16T11:42:44;57727.37;;;-145.38;56.37
61939;BME280;47897;50.322;18.892;2022-10-16T11:45:38;57740.97;;;-145.38;55.67
61939;BME280;47897;50.322;18.892;2022-10-16T11:48:31;57722.70;;;-145.38;55.68
61939;BME280;47897;50.322;18.892;2022-10-16T11:56:06;57724.40;;;-145.38;55.03
61939;BME280;47897;50.322;18.892;2022-10-16T12:03:41;57706.98;;;-145.38;54.40
61939;BME280;47897;50.322;18.892;2022-10-16T12:08:42;57724.82;;;-145.38;54.40
61939;BME280;47897;50.322;18.892;2022-10-16T12:16:53;57729.92;;;-145.38;54.42
61939;BME280;47897;50.322;18.892;2022-10-16T12:19:20;57702.30;;;-145.38;54.33
61939;BME280;47897;50.322;18.892;2022-10-16T12:21:48;57719.29;;;-145.38;54.03
61939;BME280;47897;50.322;18.892;2022-10-16T12:24:37;57723.55;;;-145.38;54.03
61939;BME280;47897;50.322;18.892;2022-10-16T12:27:05;57732.47;;;-145.38;54.41
61939;BME280;47897;50.322;18.892;2022-10-16T12:29:42;57738.42;;;-145.38;53.83
61939;BME280;47897;50.322;18.892;2022-10-16T12:34:52;57728.22;;;-145.38;54.63
61939;BME280;47897;50.322;18.892;2022-10-16T12:37:24;57728.64;;;-145.38;54.58
61939;BME280;47897;50.322;18.892;2022-10-16T12:39:53;57719.73;;;-145.38;54.51
61939;BME280;47897;50.322;18.892;2022-10-16T12:44:55;57727.38;;;-145.38;54.18
61939;BME280;47897;50.322;18.892;2022-10-16T12:47:22;57730.77;;;-145.38;53.65
61939;BME280;47897;50.322;18.892;2022-10-16T12:49:53;57719.30;;;-145.38;53.99
61939;BME280;47897;50.322;18.892;2022-10-16T12:52:36;57725.68;;;-145.38;53.82
61939;BME280;47897;50.322;18.892;2022-10-16T12:55:04;57732.89;;;-145.38;54.06
61939;BME280;47897;50.322;18.892;2022-10-16T13:02:57;57735.02;;;-145.38;54.31
61939;BME280;47897;50.322;18.892;2022-10-16T13:06:42;57742.24;;;-145.38;54.44
61939;BME280;47897;50.322;18.892;2022-10-16T13:22:32;57722.70;;;-145.38;55.40
61939;BME280;47897;50.322;18.892;2022-10-16T13:25:13;57738.00;;;-145.38;55.16
61939;BME280;47897;50.322;18.892;2022-10-16T13:28:08;57734.17;;;-145.38;55.08
61939;BME280;47897;50.322;18.892;2022-10-16T13:30:52;57730.77;;;-145.38;55.13
61939;BME280;47897;50.322;18.892;2022-10-16T13:33:55;57730.77;;;-145.38;55.51
61939;BME280;47897;50.322;18.892;2022-10-16T13:36:24;57745.64;;;-145.38;55.42
61939;BME280;47897;50.322;18.892;2022-10-16T13:39:27;57726.52;;;-145.38;55.34
61939;BME280;47897;50.322;18.892;2022-10-16T13:42:30;57743.95;;;-145.38;55.19
61939;BME280;47897;50.322;18.892;2022-10-16T13:44:56;57715.48;;;-145.38;55.17
61939;BME280;47897;50.322;18.892;2022-10-16T13:47:24;57715.48;;;-145.38;54.88
61939;BME280;47897;50.322;18.892;2022-10-16T13:50:01;57739.27;;;-145.38;54.45
61939;BME280;47897;50.322;18.892;2022-10-16T13:52:28;57723.55;;;-145.38;54.24
61939;BME280;47897;50.322;18.892;2022-10-16T13:54:54;57734.17;;;-145.38;54.03
61939;BME280;47897;50.322;18.892;2022-10-16T13:57:22;57723.55;;;-145.38;54.51
61939;BME280;47897;50.322;18.892;2022-10-16T13:59:48;57745.22;;;-145.38;54.56
61939;BME280;47897;50.322;18.892;2022-10-16T14:02:22;57723.13;;;-145.38;54.27
61939;BME280;47897;50.322;18.892;2022-10-16T14:04:50;57730.35;;;-145.38;54.37
61939;BME280;47897;50.322;18.892;2022-10-16T14:07:30;57723.98;;;-145.38;54.25
61939;BME280;47897;50.322;18.892;2022-10-16T14:10:02;57737.14;;;-145.38;54.70
61939;BME280;47897;50.322;18.892;2022-10-16T14:12:31;57727.80;;;-145.38;54.75
61939;BME280;47897;50.322;18.892;2022-10-16T14:14:58;57718.88;;;-145.38;54.63
61939;BME280;47897;50.322;18.892;2022-10-16T14:17:32;57744.79;;;-145.38;54.64
61939;BME280;47897;50.322;18.892;2022-10-16T14:20:00;57709.52;;;-145.38;54.77
61939;BME280;47897;50.322;18.892;2022-10-16T14:22:34;57717.60;;;-145.38;55.07
61939;BME280;47897;50.322;18.892;2022-10-16T14:27:45;57716.75;;;-145.38;54.94
61939;BME280;47897;50.322;18.892;2022-10-16T14:30:21;57721.43;;;-145.38;54.84
61939;BME280;47897;50.322;18.892;2022-10-16T14:32:59;57730.77;;;-145.38;54.75
61939;BME280;47897;50.322;18.892;2022-10-16T14:37:56;57724.82;;;-145.38;54.93
61939;BME280;47897;50.322;18.892;2022-10-16T14:40:29;57721.85;;;-145.38;54.87
61939;BME280;47897;50.322;18.892;2022-10-16T14:42:55;57729.07;;;-145.38;55.02
61939;BME280;47897;50.322;18.892;2022-10-16T14:45:24;57724.40;;;-145.38;54.98
61939;BME280;47897;50.322;18.892;2022-10-16T14:47:58;57726.52;;;-145.38;54.85